createdAt,value
2023-11-03T00:01:59.211Z,1.00
2023-11-03T00:04:28.143Z,0.90
2023-11-03T00:06:58.288Z,0.87
2023-11-03T00:09:29.682Z,0.90
2023-11-03T00:12:04.811Z,0.77
2023-11-03T00:14:34.339Z,1.13
2023-11-03T00:17:03.811Z,0.73
2023-11-03T00:19:33.012Z,0.90
2023-11-03T00:22:02.109Z,1.17
2023-11-03T00:24:32.754Z,1.13
2023-11-03T00:27:02.257Z,0.90
2023-11-03T00:29:31.322Z,0.80
2023-11-03T00:32:00.387Z,0.70
2023-11-03T00:34:29.470Z,0.70
2023-11-03T00:37:00.483Z,0.70
2023-11-03T00:39:29.593Z,0.87
2023-11-03T00:42:05.512Z,0.57
2023-11-03T00:44:35.585Z,0.77
2023-11-03T00:47:06.892Z,0.80
2023-11-03T00:49:35.660Z,0.70
2023-11-03T00:52:06.486Z,0.80
2023-11-03T00:54:35.582Z,0.80
2023-11-03T00:57:06.536Z,0.77
2023-11-03T00:59:35.758Z,0.50
2023-11-03T01:02:16.235Z,0.77
2023-11-03T01:04:45.334Z,0.80
2023-11-03T01:09:57.308Z,1.10
2023-11-03T01:12:27.960Z,0.70
2023-11-03T01:14:57.334Z,0.80
2023-11-03T01:17:30.075Z,0.57
2023-11-03T01:20:14.472Z,0.70
2023-11-03T01:22:49.614Z,1.00
2023-11-03T01:25:18.494Z,0.50
2023-11-03T01:27:50.130Z,0.50
2023-11-03T01:30:22.519Z,0.93
2023-11-03T01:32:54.640Z,0.80
2023-11-03T01:35:27.066Z,0.60
2023-11-03T01:37:59.482Z,0.80
2023-11-03T01:40:41.000Z,0.50
2023-11-03T01:43:25.945Z,0.70
2023-11-03T01:45:55.272Z,0.83
2023-11-03T01:48:25.956Z,0.83
2023-11-03T01:50:55.612Z,0.80
2023-11-03T01:53:25.998Z,0.90
2023-11-03T01:55:58.712Z,0.80
2023-11-03T02:04:35.882Z,0.93
2023-11-03T02:15:51.250Z,0.60
2023-11-03T02:21:28.546Z,0.57
2023-11-03T02:24:12.802Z,0.70
2023-11-03T02:26:44.198Z,0.70
2023-11-03T02:32:24.721Z,0.77
2023-11-03T02:34:56.800Z,1.10
2023-11-03T02:37:26.011Z,0.70
2023-11-03T02:39:57.157Z,0.80
2023-11-03T02:42:26.856Z,0.90
2023-11-03T02:44:55.931Z,0.97
2023-11-03T02:47:25.497Z,1.00
2023-11-03T02:49:56.095Z,1.10
2023-11-03T02:52:25.037Z,1.20
2023-11-03T02:54:54.559Z,1.00
2023-11-03T02:57:25.709Z,0.97
2023-11-03T02:59:55.467Z,1.00
2023-11-03T03:02:24.237Z,0.90
2023-11-03T03:04:54.484Z,1.10
2023-11-03T03:07:24.287Z,1.13
2023-11-03T03:09:54.172Z,1.00
2023-11-03T03:12:24.635Z,0.93
2023-11-03T03:14:54.263Z,0.93
2023-11-03T03:17:23.600Z,1.30
2023-11-03T03:19:52.255Z,1.17
2023-11-03T03:22:21.587Z,1.03
2023-11-03T03:24:50.366Z,1.20
2023-11-03T03:27:18.926Z,0.93
2023-11-03T03:29:51.982Z,1.00
2023-11-03T03:32:21.469Z,0.90
2023-11-03T03:34:50.606Z,1.03
2023-11-03T03:37:20.819Z,1.00
2023-11-03T03:39:50.835Z,1.30
2023-11-03T03:42:21.238Z,1.17
2023-11-03T03:44:53.201Z,1.67
2023-11-03T03:47:24.685Z,1.13
2023-11-03T03:49:54.605Z,1.13
2023-11-03T03:52:26.457Z,0.90
2023-11-03T03:54:55.531Z,1.00
2023-11-03T03:57:25.057Z,1.33
2023-11-03T03:59:56.549Z,1.33
2023-11-03T04:02:26.015Z,1.00
2023-11-03T04:05:03.186Z,1.20
2023-11-03T04:07:33.290Z,1.20
2023-11-03T04:10:03.157Z,1.37
2023-11-03T04:12:32.977Z,1.17
2023-11-03T04:15:05.042Z,1.27
2023-11-03T04:17:34.490Z,1.20
2023-11-03T04:20:05.750Z,1.00
2023-11-03T04:22:35.586Z,1.40
2023-11-03T04:25:05.000Z,1.50
2023-11-03T04:27:34.387Z,1.50
2023-11-03T04:30:04.687Z,1.43
2023-11-03T04:32:34.232Z,1.43
2023-11-03T04:35:03.192Z,2.10
2023-11-03T04:37:33.224Z,1.77
2023-11-03T04:40:02.593Z,1.93
2023-11-03T04:42:44.428Z,1.73
2023-11-03T04:45:20.467Z,1.70
2023-11-03T04:47:51.166Z,1.57
2023-11-03T04:50:19.960Z,1.30
2023-11-03T04:52:49.818Z,1.20
2023-11-03T04:55:20.109Z,1.33
2023-11-03T04:57:49.460Z,1.40
2023-11-03T05:00:20.078Z,1.10
2023-11-03T05:02:50.188Z,1.60
2023-11-03T05:05:19.636Z,1.30
2023-11-03T05:07:49.028Z,1.27
2023-11-03T05:10:18.176Z,1.50
2023-11-03T05:12:49.416Z,1.50
2023-11-03T05:15:20.283Z,1.30
2023-11-03T05:17:49.413Z,1.37
2023-11-03T05:20:20.941Z,1.10
2023-11-03T05:22:53.323Z,1.60
2023-11-03T05:25:23.035Z,1.80
2023-11-03T05:27:57.126Z,1.20
2023-11-03T05:30:31.454Z,1.30
2023-11-03T05:33:04.475Z,1.70
2023-11-03T05:35:33.607Z,1.27
2023-11-03T05:38:04.491Z,1.37
2023-11-03T05:40:34.008Z,1.60
2023-11-03T05:43:03.935Z,1.40
2023-11-03T05:45:52.254Z,1.33
2023-11-03T05:48:20.960Z,1.10
2023-11-03T05:50:49.546Z,1.30
2023-11-03T05:53:20.147Z,1.50
2023-11-03T05:55:51.986Z,1.57
2023-11-03T05:58:21.067Z,1.10
2023-11-03T06:00:53.462Z,1.40
2023-11-03T06:03:22.217Z,1.20
2023-11-03T06:05:51.069Z,1.30
2023-11-03T06:08:22.322Z,1.30
2023-11-03T06:10:52.345Z,1.90
2023-11-03T06:13:21.447Z,1.50
2023-11-03T06:15:56.205Z,1.60
2023-11-03T06:18:25.085Z,1.60
2023-11-03T06:20:54.014Z,1.23
2023-11-03T06:23:23.974Z,1.40
2023-11-03T06:25:52.727Z,1.27
2023-11-03T06:28:21.763Z,1.50
2023-11-03T06:30:54.494Z,1.17
2023-11-03T06:33:23.347Z,1.57
2023-11-03T06:35:56.613Z,1.83
2023-11-03T06:38:25.989Z,1.33
2023-11-03T06:40:55.414Z,1.47
2023-11-03T06:43:25.082Z,1.40
2023-11-03T06:46:03.357Z,1.70
2023-11-03T06:48:32.783Z,1.17
2023-11-03T06:51:02.352Z,1.73
2023-11-03T06:53:32.996Z,1.60
2023-11-03T06:56:05.793Z,1.60
2023-11-03T06:58:35.943Z,1.37
2023-11-03T07:01:07.952Z,1.50
2023-11-03T07:03:40.313Z,1.40
2023-11-03T07:06:10.242Z,1.43
2023-11-03T07:08:44.746Z,2.00
2023-11-03T07:11:15.502Z,1.33
2023-11-03T07:13:45.072Z,1.30
2023-11-03T07:16:17.659Z,1.60
2023-11-03T07:18:49.152Z,1.57
2023-11-03T07:21:18.841Z,1.30
2023-11-03T07:23:47.710Z,1.20
2023-11-03T07:26:19.746Z,1.60
2023-11-03T07:28:48.060Z,1.77
2023-11-03T07:31:20.175Z,1.47
2023-11-03T07:33:49.877Z,1.43
2023-11-03T07:36:21.740Z,1.57
2023-11-03T07:38:50.539Z,1.40
2023-11-03T07:41:19.540Z,1.20
2023-11-03T07:43:48.873Z,2.00
2023-11-03T07:46:21.466Z,2.17
2023-11-03T07:48:50.435Z,1.37
2023-11-03T07:51:20.536Z,1.50
2023-11-03T07:53:49.360Z,1.50
2023-11-03T07:56:18.765Z,1.40
2023-11-03T07:58:48.158Z,1.50
2023-11-03T08:01:20.866Z,1.47
2023-11-03T08:03:50.274Z,1.40
2023-11-03T08:06:24.663Z,1.57
2023-11-03T08:09:10.273Z,1.60
2023-11-03T08:25:57.604Z,1.40
2023-11-03T08:28:29.122Z,1.43
2023-11-03T08:52:31.319Z,1.50
2023-11-03T08:55:00.302Z,1.60
2023-11-03T08:58:18.282Z,1.60
2023-11-03T09:01:07.504Z,1.10
2023-11-03T09:16:26.797Z,1.47
2023-11-03T09:18:59.036Z,1.73
2023-11-03T09:21:30.796Z,1.43
2023-11-03T09:24:02.386Z,1.47
2023-11-03T09:26:33.149Z,1.63
2023-11-03T09:29:04.040Z,1.70
2023-11-03T09:32:05.876Z,1.30
2023-11-03T09:34:38.113Z,1.80
2023-11-03T09:37:08.158Z,1.43
2023-11-03T09:39:38.057Z,1.63
2023-11-03T09:42:09.522Z,1.53
2023-11-03T09:44:45.628Z,1.40
2023-11-03T09:47:27.199Z,1.50
2023-11-03T09:50:05.193Z,1.57
2023-11-03T09:52:43.900Z,1.40
2023-11-03T09:55:22.320Z,1.37
2023-11-03T09:57:55.212Z,1.43
2023-11-03T10:45:35.820Z,1.60
2023-11-03T10:51:12.154Z,1.10
2023-11-03T10:59:56.371Z,2.10
2023-11-03T11:02:34.823Z,2.10
2023-11-03T11:05:12.542Z,1.40
2023-11-03T11:07:54.276Z,1.73
2023-11-03T11:10:44.403Z,2.20
2023-11-03T11:16:11.465Z,1.47
2023-11-03T11:19:04.437Z,1.70
2023-11-03T11:29:53.987Z,2.17
2023-11-03T11:32:28.942Z,1.70
2023-11-03T11:35:01.093Z,1.83
2023-11-03T11:37:32.707Z,0.83
2023-11-03T11:40:03.462Z,2.07
2023-11-03T11:42:34.245Z,1.80
2023-11-03T11:45:07.172Z,1.70
2023-11-03T11:47:41.152Z,2.00
2023-11-03T11:50:13.067Z,0.90
2023-11-03T11:52:46.401Z,1.43
2023-11-03T11:55:15.628Z,1.43
2023-11-03T11:57:45.318Z,1.67
2023-11-03T12:00:17.714Z,1.47
2023-11-03T12:02:55.022Z,1.70
2023-11-03T12:05:26.151Z,1.40
2023-11-03T12:07:56.479Z,1.33
2023-11-03T12:10:26.106Z,1.37
2023-11-03T12:12:58.200Z,1.23
2023-11-03T12:15:29.047Z,1.40
2023-11-03T12:17:57.756Z,1.10
2023-11-03T12:20:26.184Z,1.53
2023-11-03T12:22:54.882Z,1.77
2023-11-03T12:25:23.530Z,1.63
2023-11-03T12:27:59.649Z,1.43
2023-11-03T12:30:29.795Z,1.10
2023-11-03T12:33:00.918Z,1.50
2023-11-03T12:35:34.269Z,1.33
2023-11-03T12:38:03.176Z,1.70
2023-11-03T12:40:31.784Z,1.70
2023-11-03T12:43:14.275Z,2.20
2023-11-03T12:45:46.222Z,1.90
2023-11-03T12:48:30.523Z,2.20
2023-11-03T12:51:02.406Z,1.73
2023-11-03T12:53:31.509Z,2.17
2023-11-03T12:56:01.101Z,1.70
2023-11-03T12:58:32.495Z,2.10
2023-11-03T13:01:05.807Z,2.03
2023-11-03T13:03:34.717Z,1.80
2023-11-03T13:06:09.651Z,1.40
2023-11-03T13:08:39.856Z,2.03
2023-11-03T13:11:11.054Z,2.77
2023-11-03T13:13:41.922Z,2.10
2023-11-03T13:16:12.045Z,1.90
2023-11-03T13:18:43.742Z,1.70
2023-11-03T13:21:16.585Z,2.20
2023-11-03T13:23:48.012Z,1.90
2023-11-03T13:26:19.888Z,2.00
2023-11-03T13:28:49.056Z,2.10
2023-11-03T13:31:19.561Z,2.30
2023-11-03T13:33:52.794Z,2.07
2023-11-03T13:36:21.718Z,2.10
2023-11-03T13:38:55.498Z,2.40
2023-11-03T13:41:38.882Z,1.97
2023-11-03T13:44:10.537Z,3.20
2023-11-03T13:46:41.682Z,1.87
2023-11-03T13:49:12.262Z,1.80
2023-11-03T13:51:45.976Z,2.43
2023-11-03T13:54:18.501Z,1.97
2023-11-03T13:56:48.113Z,2.40
2023-11-03T13:59:18.280Z,1.80
2023-11-03T14:01:57.058Z,2.40
2023-11-03T14:04:28.556Z,2.50
2023-11-03T14:06:59.745Z,1.90
2023-11-03T14:09:34.182Z,2.30
2023-11-03T14:12:07.569Z,1.60
2023-11-03T14:14:39.704Z,1.00
2023-11-03T14:17:12.016Z,0.67
2023-11-03T14:19:43.641Z,1.10
2023-11-03T14:22:15.920Z,1.20
2023-11-03T14:24:44.977Z,1.13
2023-11-03T14:27:15.858Z,1.30
2023-11-03T14:29:43.815Z,1.70
2023-11-03T14:32:13.091Z,1.20
2023-11-03T14:34:41.158Z,1.43
2023-11-03T14:37:11.433Z,1.83
2023-11-03T14:39:40.373Z,1.43
2023-11-03T14:42:08.967Z,2.00
2023-11-03T14:44:38.387Z,1.90
2023-11-03T14:47:07.345Z,2.20
2023-11-03T14:49:40.420Z,1.80
2023-11-03T14:52:10.374Z,2.03
2023-11-03T14:54:38.436Z,1.77
2023-11-03T14:57:07.135Z,1.90
2023-11-03T14:59:35.656Z,2.17
2023-11-03T15:02:07.228Z,1.67
2023-11-03T15:04:37.114Z,2.00
2023-11-03T15:07:05.870Z,1.63
2023-11-03T15:09:34.879Z,2.00
2023-11-03T15:12:04.378Z,2.30
2023-11-03T15:14:32.344Z,1.60
2023-11-03T15:17:00.395Z,2.00
2023-11-03T15:19:32.266Z,2.17
2023-11-03T15:22:02.581Z,1.90
2023-11-03T15:24:31.690Z,1.83
2023-11-03T15:27:02.199Z,2.30
2023-11-03T15:29:31.283Z,2.07
2023-11-03T15:31:59.517Z,2.33
2023-11-03T15:34:27.824Z,1.83
2023-11-03T15:36:55.827Z,1.93
2023-11-03T15:39:33.493Z,1.77
2023-11-03T15:42:02.267Z,2.07
2023-11-03T15:44:30.860Z,1.83
2023-11-03T15:46:59.191Z,1.90
2023-11-03T15:49:30.566Z,2.07
2023-11-03T15:51:59.202Z,1.87
2023-11-03T15:54:29.773Z,1.90
2023-11-03T15:57:00.772Z,1.73
2023-11-03T15:59:28.754Z,2.10
2023-11-03T16:01:56.774Z,1.90
2023-11-03T16:04:25.312Z,1.90
2023-11-03T16:06:53.835Z,2.87
2023-11-03T16:09:23.249Z,1.43
2023-11-03T16:11:53.734Z,1.97
2023-11-03T16:14:22.378Z,1.87
2023-11-03T16:16:50.656Z,1.70
2023-11-03T16:19:18.632Z,1.90
2023-11-03T16:21:46.766Z,1.50
2023-11-03T16:24:15.104Z,1.40
2023-11-03T16:26:44.650Z,1.60
2023-11-03T16:29:14.323Z,1.53
2023-11-03T16:31:42.787Z,1.67
2023-11-03T16:34:11.164Z,1.67
2023-11-03T16:36:40.774Z,1.57
2023-11-03T16:39:09.742Z,2.07
2023-11-03T16:41:39.974Z,1.83
2023-11-03T16:44:10.109Z,2.13
2023-11-03T16:46:39.803Z,1.90
2023-11-03T16:49:09.789Z,1.70
2023-11-03T16:51:44.185Z,1.90
2023-11-03T16:54:12.479Z,2.37
2023-11-03T16:56:42.244Z,1.90
2023-11-03T16:59:10.781Z,2.20
2023-11-03T17:01:40.722Z,1.70
2023-11-03T17:04:09.428Z,2.20
2023-11-03T17:06:37.552Z,2.07
2023-11-03T17:09:05.893Z,1.93
2023-11-03T17:11:33.838Z,2.73
2023-11-03T17:14:05.097Z,2.73
2023-11-03T17:16:33.202Z,2.20
2023-11-03T17:19:05.585Z,3.63
2023-11-03T17:21:35.105Z,2.33
2023-11-03T17:24:03.629Z,2.10
2023-11-03T17:26:31.669Z,1.90
2023-11-03T17:28:59.637Z,2.07
2023-11-03T17:31:27.701Z,1.70
2023-11-03T17:33:55.810Z,2.00
2023-11-03T17:36:25.498Z,2.00
2023-11-03T17:38:53.685Z,2.27
2023-11-03T17:41:22.091Z,2.30
2023-11-03T17:43:50.157Z,1.70
2023-11-03T17:46:18.555Z,2.23
2023-11-03T17:48:48.510Z,2.10
2023-11-03T17:51:17.235Z,2.10
2023-11-03T17:53:47.287Z,2.00
2023-11-03T17:56:15.304Z,2.00
2023-11-03T17:58:43.584Z,2.40
2023-11-03T18:01:12.095Z,1.83
2023-11-03T18:03:40.352Z,2.20
2023-11-03T18:06:08.513Z,2.20
2023-11-03T18:08:36.840Z,2.13
2023-11-03T18:11:06.400Z,1.93
2023-11-03T18:13:34.420Z,1.93
2023-11-03T18:16:02.564Z,2.00
2023-11-03T18:18:30.567Z,2.10
2023-11-03T18:20:58.557Z,2.07
2023-11-03T18:23:26.998Z,1.83
2023-11-03T18:25:55.644Z,2.30
2023-11-03T18:28:25.370Z,2.13
2023-11-03T18:30:53.505Z,2.30
2023-11-03T18:33:21.612Z,1.50
2023-11-03T18:35:51.324Z,1.70
2023-11-03T18:38:19.432Z,1.67
2023-11-03T18:40:48.655Z,1.70
2023-11-03T18:43:17.811Z,1.70
2023-11-03T18:45:48.543Z,1.93
2023-11-03T18:48:17.740Z,2.03
2023-11-03T18:59:21.612Z,1.97
2023-11-03T19:02:16.428Z,1.50
2023-11-03T19:04:46.680Z,2.00
2023-11-03T19:09:17.709Z,2.07
2023-11-03T19:11:45.744Z,1.83
2023-11-03T19:14:16.344Z,1.53
2023-11-03T19:16:47.294Z,1.60
2023-11-03T19:19:15.513Z,2.50
2023-11-03T19:21:45.230Z,2.77
2023-11-03T19:24:13.412Z,2.10
2023-11-03T19:26:42.622Z,1.97
2023-11-03T19:29:10.785Z,1.67
2023-11-03T19:31:39.968Z,1.60
2023-11-03T19:34:11.198Z,2.60
2023-11-03T19:36:39.472Z,1.80
2023-11-03T19:39:07.518Z,1.70
2023-11-03T19:41:35.551Z,1.70
2023-11-03T19:44:03.603Z,1.70
2023-11-03T19:46:31.621Z,1.80
2023-11-03T19:48:59.769Z,2.03
2023-11-03T19:51:30.075Z,2.40
2023-11-03T19:53:58.448Z,2.20
2023-11-03T19:56:27.695Z,1.80
2023-11-03T19:58:55.665Z,1.60
2023-11-03T20:01:24.172Z,1.90
2023-11-03T20:03:53.464Z,2.53
2023-11-03T20:06:21.619Z,2.17
2023-11-03T20:08:50.908Z,1.90
2023-11-03T20:11:22.064Z,1.67
2023-11-03T20:13:51.375Z,1.60
2023-11-03T20:16:21.454Z,1.87
2023-11-03T20:18:49.621Z,2.20
2023-11-03T20:21:17.762Z,1.73
2023-11-03T20:23:45.963Z,1.77
2023-11-03T20:26:15.427Z,2.30
2023-11-03T20:28:43.934Z,2.20
2023-11-03T20:31:11.907Z,2.00
2023-11-03T20:33:40.081Z,2.43
2023-11-03T20:36:09.404Z,2.57
2023-11-03T20:38:38.910Z,2.43
2023-11-03T20:41:07.974Z,2.33
2023-11-03T20:43:37.906Z,2.63
2023-11-03T20:46:06.233Z,2.40
2023-11-03T20:48:34.965Z,2.83
2023-11-03T20:51:03.257Z,2.67
2023-11-03T20:53:33.215Z,2.00
2023-11-03T20:56:01.327Z,2.73
2023-11-03T20:58:37.893Z,2.30
2023-11-03T21:01:14.365Z,2.23
2023-11-03T21:03:43.176Z,1.83
2023-11-03T21:06:12.333Z,1.80
2023-11-03T21:08:44.076Z,1.80
2023-11-03T21:11:14.046Z,1.90
2023-11-03T21:13:56.382Z,1.80
2023-11-03T21:16:34.792Z,1.87
2023-11-03T21:19:04.377Z,1.90
2023-11-03T21:21:35.057Z,1.80
2023-11-03T21:24:07.601Z,2.00
2023-11-03T21:26:37.886Z,1.73
2023-11-03T21:29:11.096Z,1.50
2023-11-03T21:31:49.553Z,1.90
2023-11-03T21:36:57.354Z,1.53
2023-11-03T21:39:29.287Z,1.73
2023-11-03T21:41:58.135Z,2.03
2023-11-03T21:44:28.596Z,1.57
2023-11-03T21:47:10.162Z,1.63
2023-11-03T21:49:40.283Z,1.70
2023-11-03T21:52:10.177Z,1.87
2023-11-03T21:54:43.775Z,1.70
2023-11-03T21:57:15.446Z,1.53
2023-11-03T21:59:44.685Z,1.20
2023-11-03T22:02:14.927Z,1.20
2023-11-03T22:04:46.892Z,1.40
2023-11-03T22:07:15.576Z,1.70
2023-11-03T22:09:45.963Z,1.60
2023-11-03T22:12:18.031Z,1.30
2023-11-03T22:14:46.838Z,1.60
2023-11-03T22:17:17.021Z,1.60
2023-11-03T22:19:45.563Z,1.47
2023-11-03T22:22:14.322Z,1.50
2023-11-03T22:24:43.909Z,1.27
2023-11-03T22:27:13.221Z,1.60
2023-11-03T22:29:47.109Z,1.13
2023-11-03T22:32:17.162Z,1.40
2023-11-03T22:34:45.992Z,1.40
2023-11-03T22:37:19.590Z,1.30
2023-11-03T22:39:48.582Z,1.20
2023-11-03T22:42:17.016Z,1.47
2023-11-03T22:44:47.006Z,1.20
2023-11-03T22:47:17.449Z,1.33
2023-11-03T22:49:46.388Z,1.40
2023-11-03T22:52:15.402Z,1.30
2023-11-03T22:54:44.399Z,1.37
2023-11-03T22:57:17.810Z,1.53
2023-11-03T22:59:46.617Z,1.50
2023-11-03T23:02:15.828Z,1.87
2023-11-03T23:04:46.898Z,1.20
2023-11-03T23:07:16.240Z,1.40
2023-11-03T23:09:46.765Z,1.17
2023-11-03T23:12:31.106Z,1.40
2023-11-03T23:14:59.781Z,1.30
2023-11-03T23:17:29.845Z,1.50
2023-11-03T23:20:01.115Z,1.33
2023-11-03T23:22:31.521Z,1.23
2023-11-03T23:25:00.397Z,1.30
2023-11-03T23:27:29.066Z,1.40
2023-11-03T23:29:57.858Z,1.40
2023-11-03T23:32:26.826Z,1.47
2023-11-03T23:34:56.259Z,1.33
2023-11-03T23:37:28.766Z,1.40
2023-11-03T23:39:57.489Z,1.10
2023-11-03T23:42:26.963Z,1.17
2023-11-03T23:44:56.065Z,0.83
2023-11-03T23:47:30.132Z,1.20
2023-11-03T23:49:58.647Z,1.30
2023-11-03T23:52:29.713Z,0.90
2023-11-03T23:55:02.829Z,1.07
2023-11-03T23:57:33.765Z,1.20
